Airfield :
LOGIN :

Register | Disclaimer

   EN    FR    IT 

 










Legend :    VFR   Marginal VFR   IFR   Intensive IFR   Very Intensive IFR
Visi :
Ceiling :
>= 8 km
>= 3000ft
5 to 8 km
1000 to 3000 ft
1500m to 5 km
500 to 1000 ft
800 to 1500m
200 to 500 ft
< 800m
< 200 ft
Symbols :   Thunderstorms  Fog  Heavy snow  Heavy precipitations  Wind > 20 kt
SIGMETs :     Misc.  Thunderstorms  Icing  Turbulence  Mountain Waves  Volcanic Ashes







- Airport Elevation : -11 ft
- IATA code : AMS


EHAM - Amsterdam Schiphol

CURRENT METAR :
  • 241555Z 09012KT 050V120 9999 FEW045 22/13 Q1017 BECMG 09014KT

EXPIRED METARs :
  • 241525Z VRB01KT 9999 VCSH FEW035 FEW080TCU 22/14 Q1017 BECMG 09014KT
  • 241455Z 16003KT 100V230 9999 VCSH FEW080TCU 22/15 Q1017 BECMG 09014KT
  • 241355Z 11005KT 020V170 9999 VCSH FEW045 22/14 Q1018 BECMG 09014KT
  • 241325Z VRB02KT 9999 VCSH FEW045 FEW070TCU 23/15 Q1018 BECMG 09014KT

TAF TAF EHAM
Valid from the 24 at 12:00 until the 25 at 18:00 UTC


241102Z 2412/2518 09014KT CAVOK
PROB30
TEMPO 2415/2422 09013G23KT 4000 SHRA SCT040CB
BECMG 2418/2421 09009KT
PROB30
TEMPO 2422/2511 6000 SHRA RA BKN040 SCT060CB
PROB40
TEMPO 2511/2518 VRB13G23KT 4000 SHRA TSRA SCT030CB
No reported NOTAMs for that airfield.



MET'MAP, your aeronautical weather chart ! - Copyright ORBIFLY December 2007 - Disclaimer

ORBIFLY MET'MAP TEAM :

Programming & Development : Alexandra Zaïnal
Concept & Development : Baudouin d'Aumeries
Co-Development & Prog : Marc-Olivier Méhu
Technical & hardware support : Manuel Goepfert

Contact : metmap@orbifly.com




SOURCES & CREDITS :

   NOAA